sensor_id;sensor_type;location;lat;lon;timestamp;P1;durP1;ratioP1;P2;durP2;ratioP2
28483;SDS011;15704;48.834;8.736;2022-10-26T00:00:46;2.05;;;1.17;;
28483;SDS011;15704;48.834;8.736;2022-10-26T00:03:12;3.53;;;0.80;;
28483;SDS011;15704;48.834;8.736;2022-10-26T00:05:38;3.38;;;0.90;;
28483;SDS011;15704;48.834;8.736;2022-10-26T00:08:04;2.25;;;1.08;;
28483;SDS011;15704;48.834;8.736;2022-10-26T00:10:30;2.00;;;1.20;;
28483;SDS011;15704;48.834;8.736;2022-10-26T00:12:59;2.15;;;1.10;;
28483;SDS011;15704;48.834;8.736;2022-10-26T00:15:24;1.08;;;0.80;;
28483;SDS011;15704;48.834;8.736;2022-10-26T00:17:50;1.15;;;0.98;;
28483;SDS011;15704;48.834;8.736;2022-10-26T00:20:16;1.48;;;0.80;;
28483;SDS011;15704;48.834;8.736;2022-10-26T00:22:41;2.22;;;1.00;;
28483;SDS011;15704;48.834;8.736;2022-10-26T00:25:07;2.63;;;1.17;;
28483;SDS011;15704;48.834;8.736;2022-10-26T00:27:33;2.10;;;1.02;;
28483;SDS011;15704;48.834;8.736;2022-10-26T00:29:59;1.80;;;0.93;;
28483;SDS011;15704;48.834;8.736;2022-10-26T00:32:25;2.55;;;1.20;;
28483;SDS011;15704;48.834;8.736;2022-10-26T00:34:51;3.95;;;1.30;;
28483;SDS011;15704;48.834;8.736;2022-10-26T00:37:17;2.72;;;1.20;;
28483;SDS011;15704;48.834;8.736;2022-10-26T00:39:43;1.77;;;1.15;;
28483;SDS011;15704;48.834;8.736;2022-10-26T00:42:12;3.40;;;1.20;;
28483;SDS011;15704;48.834;8.736;2022-10-26T00:47:10;3.28;;;0.98;;
28483;SDS011;15704;48.834;8.736;2022-10-26T00:50:02;1.17;;;0.90;;
28483;SDS011;15704;48.834;8.736;2022-10-26T00:52:33;1.30;;;0.90;;
28483;SDS011;15704;48.834;8.736;2022-10-26T00:54:59;1.38;;;0.90;;
28483;SDS011;15704;48.834;8.736;2022-10-26T00:57:25;3.85;;;1.35;;
28483;SDS011;15704;48.834;8.736;2022-10-26T00:59:51;3.35;;;1.40;;
28483;SDS011;15704;48.834;8.736;2022-10-26T01:02:18;2.28;;;1.15;;
28483;SDS011;15704;48.834;8.736;2022-10-26T01:04:45;2.40;;;1.10;;
28483;SDS011;15704;48.834;8.736;2022-10-26T01:07:11;2.88;;;1.08;;
28483;SDS011;15704;48.834;8.736;2022-10-26T01:09:38;2.10;;;1.02;;
28483;SDS011;15704;48.834;8.736;2022-10-26T01:12:04;1.23;;;0.82;;
28483;SDS011;15704;48.834;8.736;2022-10-26T01:14:29;1.90;;;0.90;;
28483;SDS011;15704;48.834;8.736;2022-10-26T01:22:20;2.35;;;1.08;;
28483;SDS011;15704;48.834;8.736;2022-10-26T01:25:23;3.22;;;1.00;;
28483;SDS011;15704;48.834;8.736;2022-10-26T01:27:52;1.20;;;0.90;;
28483;SDS011;15704;48.834;8.736;2022-10-26T01:35:34;3.10;;;1.15;;
28483;SDS011;15704;48.834;8.736;2022-10-26T01:41:12;1.45;;;0.88;;
28483;SDS011;15704;48.834;8.736;2022-10-26T01:43:48;1.88;;;1.08;;
28483;SDS011;15704;48.834;8.736;2022-10-26T01:46:18;1.65;;;0.80;;
28483;SDS011;15704;48.834;8.736;2022-10-26T01:48:46;2.83;;;1.10;;
28483;SDS011;15704;48.834;8.736;2022-10-26T01:51:15;1.27;;;1.00;;
28483;SDS011;15704;48.834;8.736;2022-10-26T01:53:44;1.52;;;0.88;;
28483;SDS011;15704;48.834;8.736;2022-10-26T01:56:26;2.78;;;1.38;;
28483;SDS011;15704;48.834;8.736;2022-10-26T01:59:15;2.03;;;0.88;;
28483;SDS011;15704;48.834;8.736;2022-10-26T02:10:19;3.00;;;1.33;;
28483;SDS011;15704;48.834;8.736;2022-10-26T02:13:09;2.28;;;1.13;;
28483;SDS011;15704;48.834;8.736;2022-10-26T02:18:22;1.58;;;1.05;;
28483;SDS011;15704;48.834;8.736;2022-10-26T02:21:05;2.10;;;0.93;;
28483;SDS011;15704;48.834;8.736;2022-10-26T02:23:34;2.70;;;1.08;;
28483;SDS011;15704;48.834;8.736;2022-10-26T02:26:02;2.25;;;1.00;;
28483;SDS011;15704;48.834;8.736;2022-10-26T02:28:32;1.27;;;0.93;;
28483;SDS011;15704;48.834;8.736;2022-10-26T02:31:03;1.40;;;0.90;;
28483;SDS011;15704;48.834;8.736;2022-10-26T02:33:30;3.55;;;1.10;;
28483;SDS011;15704;48.834;8.736;2022-10-26T02:36:01;3.47;;;1.30;;
28483;SDS011;15704;48.834;8.736;2022-10-26T02:38:31;1.35;;;0.82;;
28483;SDS011;15704;48.834;8.736;2022-10-26T02:40:58;1.80;;;0.95;;
28483;SDS011;15704;48.834;8.736;2022-10-26T02:43:26;2.80;;;1.17;;
28483;SDS011;15704;48.834;8.736;2022-10-26T02:46:16;1.45;;;1.20;;
28483;SDS011;15704;48.834;8.736;2022-10-26T02:48:41;0.95;;;0.88;;
28483;SDS011;15704;48.834;8.736;2022-10-26T02:51:11;1.67;;;1.02;;
28483;SDS011;15704;48.834;8.736;2022-10-26T02:59:29;1.73;;;1.05;;
28483;SDS011;15704;48.834;8.736;2022-10-26T03:02:00;1.05;;;0.90;;
28483;SDS011;15704;48.834;8.736;2022-10-26T03:04:29;1.45;;;0.70;;
28483;SDS011;15704;48.834;8.736;2022-10-26T03:06:56;1.17;;;0.95;;
28483;SDS011;15704;48.834;8.736;2022-10-26T03:09:22;1.67;;;1.00;;
28483;SDS011;15704;48.834;8.736;2022-10-26T03:11:48;2.22;;;1.10;;
28483;SDS011;15704;48.834;8.736;2022-10-26T03:14:14;2.40;;;1.00;;
28483;SDS011;15704;48.834;8.736;2022-10-26T03:16:39;1.98;;;0.95;;
28483;SDS011;15704;48.834;8.736;2022-10-26T03:19:05;2.75;;;1.00;;
28483;SDS011;15704;48.834;8.736;2022-10-26T03:21:30;2.13;;;1.10;;
28483;SDS011;15704;48.834;8.736;2022-10-26T03:23:56;1.38;;;0.95;;
28483;SDS011;15704;48.834;8.736;2022-10-26T03:26:21;1.92;;;1.17;;
28483;SDS011;15704;48.834;8.736;2022-10-26T03:28:47;1.00;;;0.90;;
28483;SDS011;15704;48.834;8.736;2022-10-26T03:31:13;1.65;;;1.02;;
28483;SDS011;15704;48.834;8.736;2022-10-26T03:33:38;1.85;;;1.10;;
28483;SDS011;15704;48.834;8.736;2022-10-26T03:36:04;2.47;;;0.98;;
28483;SDS011;15704;48.834;8.736;2022-10-26T03:38:30;1.92;;;1.00;;
28483;SDS011;15704;48.834;8.736;2022-10-26T03:40:55;1.88;;;0.98;;
28483;SDS011;15704;48.834;8.736;2022-10-26T03:43:21;1.00;;;0.90;;
28483;SDS011;15704;48.834;8.736;2022-10-26T03:45:46;0.95;;;0.90;;
28483;SDS011;15704;48.834;8.736;2022-10-26T03:48:12;2.00;;;1.10;;
28483;SDS011;15704;48.834;8.736;2022-10-26T03:50:38;2.50;;;1.30;;
28483;SDS011;15704;48.834;8.736;2022-10-26T03:53:04;2.38;;;0.98;;
28483;SDS011;15704;48.834;8.736;2022-10-26T03:55:29;2.13;;;1.30;;
28483;SDS011;15704;48.834;8.736;2022-10-26T03:57:55;1.25;;;0.70;;
28483;SDS011;15704;48.834;8.736;2022-10-26T04:00:20;3.03;;;0.80;;
28483;SDS011;15704;48.834;8.736;2022-10-26T04:02:52;2.78;;;1.00;;
28483;SDS011;15704;48.834;8.736;2022-10-26T04:05:19;1.73;;;1.02;;
28483;SDS011;15704;48.834;8.736;2022-10-26T04:07:50;1.17;;;0.85;;
28483;SDS011;15704;48.834;8.736;2022-10-26T04:10:23;1.88;;;0.98;;
28483;SDS011;15704;48.834;8.736;2022-10-26T04:12:50;1.08;;;0.90;;
28483;SDS011;15704;48.834;8.736;2022-10-26T04:15:16;1.30;;;0.98;;
28483;SDS011;15704;48.834;8.736;2022-10-26T04:17:42;2.08;;;1.10;;
28483;SDS011;15704;48.834;8.736;2022-10-26T04:20:08;1.27;;;1.13;;
28483;SDS011;15704;48.834;8.736;2022-10-26T04:22:34;2.17;;;1.25;;
28483;SDS011;15704;48.834;8.736;2022-10-26T04:25:00;1.63;;;1.25;;
28483;SDS011;15704;48.834;8.736;2022-10-26T04:27:26;1.13;;;1.00;;
28483;SDS011;15704;48.834;8.736;2022-10-26T04:29:52;1.58;;;1.10;;
28483;SDS011;15704;48.834;8.736;2022-10-26T04:32:17;1.63;;;0.90;;
28483;SDS011;15704;48.834;8.736;2022-10-26T04:34:43;1.35;;;0.80;;
28483;SDS011;15704;48.834;8.736;2022-10-26T04:37:09;1.77;;;1.00;;
28483;SDS011;15704;48.834;8.736;2022-10-26T04:39:34;1.02;;;0.90;;
28483;SDS011;15704;48.834;8.736;2022-10-26T04:42:00;2.65;;;1.13;;
28483;SDS011;15704;48.834;8.736;2022-10-26T04:44:25;1.40;;;0.90;;
28483;SDS011;15704;48.834;8.736;2022-10-26T04:46:51;0.70;;;0.70;;
28483;SDS011;15704;48.834;8.736;2022-10-26T04:49:16;1.10;;;0.80;;
28483;SDS011;15704;48.834;8.736;2022-10-26T04:51:42;2.03;;;1.25;;
28483;SDS011;15704;48.834;8.736;2022-10-26T04:54:07;1.05;;;0.75;;
28483;SDS011;15704;48.834;8.736;2022-10-26T04:56:33;1.58;;;0.85;;
28483;SDS011;15704;48.834;8.736;2022-10-26T04:58:58;1.48;;;0.80;;
28483;SDS011;15704;48.834;8.736;2022-10-26T05:01:24;1.30;;;0.90;;
28483;SDS011;15704;48.834;8.736;2022-10-26T05:03:50;1.92;;;1.10;;
28483;SDS011;15704;48.834;8.736;2022-10-26T05:06:17;1.83;;;1.08;;
28483;SDS011;15704;48.834;8.736;2022-10-26T05:08:43;2.28;;;1.00;;
28483;SDS011;15704;48.834;8.736;2022-10-26T05:11:08;2.55;;;1.50;;
28483;SDS011;15704;48.834;8.736;2022-10-26T05:13:37;2.25;;;1.20;;
28483;SDS011;15704;48.834;8.736;2022-10-26T05:16:02;1.10;;;0.85;;
28483;SDS011;15704;48.834;8.736;2022-10-26T05:18:28;1.88;;;1.10;;
28483;SDS011;15704;48.834;8.736;2022-10-26T05:20:54;1.77;;;0.90;;
28483;SDS011;15704;48.834;8.736;2022-10-26T05:23:20;1.35;;;1.00;;
28483;SDS011;15704;48.834;8.736;2022-10-26T05:25:46;1.25;;;0.90;;
28483;SDS011;15704;48.834;8.736;2022-10-26T05:28:12;2.38;;;1.08;;
28483;SDS011;15704;48.834;8.736;2022-10-26T05:30:39;0.90;;;0.70;;
28483;SDS011;15704;48.834;8.736;2022-10-26T05:33:07;2.08;;;1.05;;
28483;SDS011;15704;48.834;8.736;2022-10-26T05:35:34;1.27;;;0.90;;
28483;SDS011;15704;48.834;8.736;2022-10-26T05:38:05;1.95;;;1.23;;
28483;SDS011;15704;48.834;8.736;2022-10-26T05:40:34;1.90;;;0.88;;
28483;SDS011;15704;48.834;8.736;2022-10-26T05:43:00;1.65;;;0.90;;
28483;SDS011;15704;48.834;8.736;2022-10-26T05:45:27;2.65;;;1.65;;
28483;SDS011;15704;48.834;8.736;2022-10-26T05:47:53;2.35;;;1.25;;
28483;SDS011;15704;48.834;8.736;2022-10-26T05:50:18;2.22;;;1.15;;
28483;SDS011;15704;48.834;8.736;2022-10-26T05:52:44;1.38;;;1.00;;
28483;SDS011;15704;48.834;8.736;2022-10-26T05:55:12;1.23;;;0.70;;
28483;SDS011;15704;48.834;8.736;2022-10-26T05:57:39;1.75;;;0.95;;
28483;SDS011;15704;48.834;8.736;2022-10-26T06:00:06;1.45;;;0.88;;
28483;SDS011;15704;48.834;8.736;2022-10-26T06:02:40;0.93;;;0.70;;
28483;SDS011;15704;48.834;8.736;2022-10-26T06:05:08;4.05;;;0.95;;
28483;SDS011;15704;48.834;8.736;2022-10-26T06:07:37;1.10;;;1.00;;
28483;SDS011;15704;48.834;8.736;2022-10-26T06:10:03;1.35;;;0.93;;
28483;SDS011;15704;48.834;8.736;2022-10-26T06:12:29;2.85;;;1.10;;
28483;SDS011;15704;48.834;8.736;2022-10-26T06:14:55;2.05;;;1.20;;
28483;SDS011;15704;48.834;8.736;2022-10-26T06:31:14;2.10;;;1.05;;
28483;SDS011;15704;48.834;8.736;2022-10-26T06:33:40;1.50;;;1.10;;
28483;SDS011;15704;48.834;8.736;2022-10-26T06:38:34;2.15;;;0.90;;
28483;SDS011;15704;48.834;8.736;2022-10-26T06:41:02;1.00;;;0.90;;
28483;SDS011;15704;48.834;8.736;2022-10-26T06:43:29;1.60;;;0.88;;
28483;SDS011;15704;48.834;8.736;2022-10-26T06:49:02;1.02;;;0.75;;
28483;SDS011;15704;48.834;8.736;2022-10-26T06:57:13;1.30;;;1.00;;
28483;SDS011;15704;48.834;8.736;2022-10-26T06:59:50;1.48;;;0.90;;
28483;SDS011;15704;48.834;8.736;2022-10-26T07:02:18;1.58;;;1.10;;
28483;SDS011;15704;48.834;8.736;2022-10-26T07:04:44;2.55;;;1.25;;
28483;SDS011;15704;48.834;8.736;2022-10-26T07:07:14;1.63;;;1.13;;
28483;SDS011;15704;48.834;8.736;2022-10-26T07:09:48;1.52;;;0.93;;
28483;SDS011;15704;48.834;8.736;2022-10-26T07:12:14;1.70;;;0.90;;
28483;SDS011;15704;48.834;8.736;2022-10-26T07:14:40;1.73;;;0.93;;
28483;SDS011;15704;48.834;8.736;2022-10-26T07:17:06;2.72;;;0.95;;
28483;SDS011;15704;48.834;8.736;2022-10-26T07:19:32;2.13;;;0.82;;
28483;SDS011;15704;48.834;8.736;2022-10-26T07:21:57;1.88;;;0.93;;
28483;SDS011;15704;48.834;8.736;2022-10-26T07:24:24;2.28;;;1.10;;
28483;SDS011;15704;48.834;8.736;2022-10-26T07:26:52;0.95;;;0.88;;
28483;SDS011;15704;48.834;8.736;2022-10-26T07:29:19;1.30;;;0.75;;
28483;SDS011;15704;48.834;8.736;2022-10-26T07:31:44;1.33;;;1.05;;
28483;SDS011;15704;48.834;8.736;2022-10-26T07:34:10;1.40;;;0.98;;
28483;SDS011;15704;48.834;8.736;2022-10-26T07:36:35;0.80;;;0.75;;
28483;SDS011;15704;48.834;8.736;2022-10-26T07:39:02;2.40;;;1.23;;
28483;SDS011;15704;48.834;8.736;2022-10-26T07:41:28;2.03;;;1.05;;
28483;SDS011;15704;48.834;8.736;2022-10-26T07:43:54;1.77;;;1.10;;
28483;SDS011;15704;48.834;8.736;2022-10-26T07:46:19;1.13;;;0.95;;
28483;SDS011;15704;48.834;8.736;2022-10-26T07:48:45;1.05;;;0.95;;
28483;SDS011;15704;48.834;8.736;2022-10-26T07:51:11;2.03;;;1.30;;
28483;SDS011;15704;48.834;8.736;2022-10-26T07:53:37;2.72;;;1.17;;
28483;SDS011;15704;48.834;8.736;2022-10-26T07:56:02;2.65;;;1.10;;
28483;SDS011;15704;48.834;8.736;2022-10-26T07:58:28;2.67;;;0.95;;
28483;SDS011;15704;48.834;8.736;2022-10-26T08:00:54;1.73;;;1.00;;
28483;SDS011;15704;48.834;8.736;2022-10-26T08:03:20;1.75;;;1.10;;
28483;SDS011;15704;48.834;8.736;2022-10-26T08:05:47;1.50;;;0.88;;
28483;SDS011;15704;48.834;8.736;2022-10-26T08:08:19;1.75;;;1.00;;
28483;SDS011;15704;48.834;8.736;2022-10-26T08:10:45;1.42;;;0.90;;
28483;SDS011;15704;48.834;8.736;2022-10-26T08:13:11;2.55;;;1.27;;
28483;SDS011;15704;48.834;8.736;2022-10-26T08:15:37;4.43;;;1.25;;
28483;SDS011;15704;48.834;8.736;2022-10-26T08:18:03;1.38;;;1.10;;
28483;SDS011;15704;48.834;8.736;2022-10-26T08:20:29;2.05;;;1.30;;
28483;SDS011;15704;48.834;8.736;2022-10-26T08:22:55;1.67;;;1.08;;
28483;SDS011;15704;48.834;8.736;2022-10-26T08:25:21;1.83;;;1.13;;
28483;SDS011;15704;48.834;8.736;2022-10-26T08:27:47;2.63;;;1.17;;
28483;SDS011;15704;48.834;8.736;2022-10-26T08:30:13;2.83;;;1.40;;
28483;SDS011;15704;48.834;8.736;2022-10-26T08:32:39;2.03;;;1.15;;
28483;SDS011;15704;48.834;8.736;2022-10-26T08:35:06;1.17;;;0.88;;
28483;SDS011;15704;48.834;8.736;2022-10-26T08:37:32;1.63;;;1.30;;
28483;SDS011;15704;48.834;8.736;2022-10-26T08:39:58;3.10;;;1.20;;
28483;SDS011;15704;48.834;8.736;2022-10-26T08:42:26;32.72;;;1.40;;
28483;SDS011;15704;48.834;8.736;2022-10-26T08:44:58;2.28;;;1.15;;
28483;SDS011;15704;48.834;8.736;2022-10-26T08:47:30;1.55;;;1.00;;
28483;SDS011;15704;48.834;8.736;2022-10-26T08:50:10;2.50;;;1.23;;
28483;SDS011;15704;48.834;8.736;2022-10-26T08:52:52;2.97;;;1.13;;
28483;SDS011;15704;48.834;8.736;2022-10-26T08:55:46;2.67;;;1.15;;
28483;SDS011;15704;48.834;8.736;2022-10-26T08:58:20;3.28;;;1.00;;
28483;SDS011;15704;48.834;8.736;2022-10-26T09:00:49;2.47;;;1.00;;
28483;SDS011;15704;48.834;8.736;2022-10-26T09:03:17;2.17;;;1.00;;
28483;SDS011;15704;48.834;8.736;2022-10-26T09:08:35;2.15;;;1.05;;
28483;SDS011;15704;48.834;8.736;2022-10-26T09:11:19;1.60;;;1.00;;
28483;SDS011;15704;48.834;8.736;2022-10-26T09:20:04;4.15;;;1.30;;
28483;SDS011;15704;48.834;8.736;2022-10-26T09:22:56;5.50;;;1.10;;
28483;SDS011;15704;48.834;8.736;2022-10-26T09:25:39;7.20;;;1.48;;
28483;SDS011;15704;48.834;8.736;2022-10-26T09:28:16;6.93;;;1.30;;
28483;SDS011;15704;48.834;8.736;2022-10-26T09:30:43;3.30;;;1.33;;
28483;SDS011;15704;48.834;8.736;2022-10-26T09:33:16;5.28;;;1.33;;
28483;SDS011;15704;48.834;8.736;2022-10-26T09:35:48;3.17;;;1.10;;
28483;SDS011;15704;48.834;8.736;2022-10-26T09:39:00;3.22;;;1.20;;
28483;SDS011;15704;48.834;8.736;2022-10-26T09:41:38;2.25;;;1.13;;
28483;SDS011;15704;48.834;8.736;2022-10-26T09:44:10;2.38;;;1.20;;
28483;SDS011;15704;48.834;8.736;2022-10-26T09:49:31;2.38;;;1.33;;
28483;SDS011;15704;48.834;8.736;2022-10-26T09:52:13;4.00;;;1.15;;
28483;SDS011;15704;48.834;8.736;2022-10-26T09:54:39;2.17;;;0.98;;
28483;SDS011;15704;48.834;8.736;2022-10-26T09:57:05;2.30;;;1.15;;
28483;SDS011;15704;48.834;8.736;2022-10-26T09:59:33;3.22;;;1.30;;
28483;SDS011;15704;48.834;8.736;2022-10-26T10:05:21;2.63;;;1.10;;
28483;SDS011;15704;48.834;8.736;2022-10-26T10:13:37;3.78;;;1.20;;
28483;SDS011;15704;48.834;8.736;2022-10-26T10:16:05;3.05;;;1.52;;
28483;SDS011;15704;48.834;8.736;2022-10-26T10:18:51;2.63;;;1.15;;
28483;SDS011;15704;48.834;8.736;2022-10-26T10:21:35;2.90;;;1.10;;
28483;SDS011;15704;48.834;8.736;2022-10-26T10:24:19;2.70;;;1.33;;
28483;SDS011;15704;48.834;8.736;2022-10-26T10:29:25;2.85;;;1.13;;
28483;SDS011;15704;48.834;8.736;2022-10-26T10:32:30;3.25;;;1.30;;
28483;SDS011;15704;48.834;8.736;2022-10-26T10:34:58;4.60;;;1.73;;
28483;SDS011;15704;48.834;8.736;2022-10-26T10:37:37;2.88;;;1.02;;
28483;SDS011;15704;48.834;8.736;2022-10-26T10:42:33;2.53;;;1.50;;
28483;SDS011;15704;48.834;8.736;2022-10-26T10:45:02;3.03;;;0.90;;
28483;SDS011;15704;48.834;8.736;2022-10-26T10:47:30;6.38;;;1.30;;
28483;SDS011;15704;48.834;8.736;2022-10-26T10:52:34;2.17;;;1.27;;
28483;SDS011;15704;48.834;8.736;2022-10-26T10:55:14;2.05;;;1.33;;
28483;SDS011;15704;48.834;8.736;2022-10-26T11:00:39;2.45;;;1.30;;
28483;SDS011;15704;48.834;8.736;2022-10-26T11:10:57;1.85;;;1.15;;
28483;SDS011;15704;48.834;8.736;2022-10-26T11:13:32;3.75;;;1.08;;
28483;SDS011;15704;48.834;8.736;2022-10-26T11:16:54;2.20;;;1.40;;
28483;SDS011;15704;48.834;8.736;2022-10-26T11:19:21;2.45;;;1.05;;
28483;SDS011;15704;48.834;8.736;2022-10-26T11:21:50;9.00;;;2.30;;
28483;SDS011;15704;48.834;8.736;2022-10-26T11:24:28;2.90;;;1.30;;
28483;SDS011;15704;48.834;8.736;2022-10-26T11:29:54;4.57;;;1.23;;
28483;SDS011;15704;48.834;8.736;2022-10-26T11:35:21;4.28;;;1.55;;
28483;SDS011;15704;48.834;8.736;2022-10-26T11:37:52;4.53;;;1.60;;
28483;SDS011;15704;48.834;8.736;2022-10-26T11:43:37;5.82;;;1.40;;
28483;SDS011;15704;48.834;8.736;2022-10-26T11:48:59;2.40;;;1.23;;
28483;SDS011;15704;48.834;8.736;2022-10-26T11:54:22;3.30;;;1.38;;
28483;SDS011;15704;48.834;8.736;2022-10-26T11:56:56;1.83;;;0.82;;
28483;SDS011;15704;48.834;8.736;2022-10-26T11:59:27;6.63;;;2.20;;
28483;SDS011;15704;48.834;8.736;2022-10-26T12:04:28;6.68;;;1.98;;
28483;SDS011;15704;48.834;8.736;2022-10-26T12:06:57;6.70;;;1.73;;
28483;SDS011;15704;48.834;8.736;2022-10-26T12:09:29;5.60;;;1.70;;
28483;SDS011;15704;48.834;8.736;2022-10-26T12:14:35;10.43;;;2.03;;
28483;SDS011;15704;48.834;8.736;2022-10-26T12:17:12;19.58;;;1.65;;
28483;SDS011;15704;48.834;8.736;2022-10-26T12:22:12;7.73;;;1.60;;
28483;SDS011;15704;48.834;8.736;2022-10-26T12:24:43;3.95;;;1.30;;
28483;SDS011;15704;48.834;8.736;2022-10-26T12:27:28;5.47;;;1.85;;
28483;SDS011;15704;48.834;8.736;2022-10-26T12:37:55;6.85;;;1.60;;
28483;SDS011;15704;48.834;8.736;2022-10-26T12:45:39;8.60;;;2.33;;
28483;SDS011;15704;48.834;8.736;2022-10-26T12:50:46;11.57;;;2.38;;
28483;SDS011;15704;48.834;8.736;2022-10-26T12:53:12;11.43;;;2.25;;
28483;SDS011;15704;48.834;8.736;2022-10-26T13:06:15;10.80;;;2.05;;
28483;SDS011;15704;48.834;8.736;2022-10-26T13:08:54;6.82;;;1.50;;
28483;SDS011;15704;48.834;8.736;2022-10-26T13:13:53;8.75;;;2.33;;
28483;SDS011;15704;48.834;8.736;2022-10-26T13:16:21;4.15;;;1.25;;
28483;SDS011;15704;48.834;8.736;2022-10-26T13:18:50;5.65;;;1.85;;
28483;SDS011;15704;48.834;8.736;2022-10-26T13:21:17;9.75;;;2.17;;
28483;SDS011;15704;48.834;8.736;2022-10-26T13:23:45;7.25;;;1.60;;
28483;SDS011;15704;48.834;8.736;2022-10-26T13:26:22;3.83;;;1.63;;
28483;SDS011;15704;48.834;8.736;2022-10-26T13:36:50;8.55;;;1.80;;
28483;SDS011;15704;48.834;8.736;2022-10-26T13:39:30;3.80;;;1.35;;
28483;SDS011;15704;48.834;8.736;2022-10-26T13:42:01;2.97;;;1.50;;
28483;SDS011;15704;48.834;8.736;2022-10-26T13:44:38;4.38;;;1.73;;
28483;SDS011;15704;48.834;8.736;2022-10-26T13:47:14;4.13;;;1.77;;
28483;SDS011;15704;48.834;8.736;2022-10-26T13:49:46;5.13;;;1.63;;
28483;SDS011;15704;48.834;8.736;2022-10-26T13:52:18;4.22;;;1.60;;
28483;SDS011;15704;48.834;8.736;2022-10-26T13:54:53;5.68;;;1.42;;
28483;SDS011;15704;48.834;8.736;2022-10-26T13:57:22;4.95;;;1.73;;
28483;SDS011;15704;48.834;8.736;2022-10-26T14:00:21;3.60;;;2.33;;
28483;SDS011;15704;48.834;8.736;2022-10-26T14:02:47;5.13;;;2.50;;
28483;SDS011;15704;48.834;8.736;2022-10-26T14:05:14;4.13;;;2.13;;
28483;SDS011;15704;48.834;8.736;2022-10-26T14:12:57;6.65;;;1.90;;
28483;SDS011;15704;48.834;8.736;2022-10-26T14:15:28;6.18;;;1.35;;
28483;SDS011;15704;48.834;8.736;2022-10-26T14:17:56;2.58;;;1.20;;
28483;SDS011;15704;48.834;8.736;2022-10-26T14:20:23;5.10;;;1.63;;
28483;SDS011;15704;48.834;8.736;2022-10-26T14:22:50;5.15;;;1.80;;
28483;SDS011;15704;48.834;8.736;2022-10-26T14:25:24;3.88;;;1.67;;
28483;SDS011;15704;48.834;8.736;2022-10-26T14:27:52;2.83;;;1.30;;
28483;SDS011;15704;48.834;8.736;2022-10-26T14:32:46;4.32;;;1.90;;
28483;SDS011;15704;48.834;8.736;2022-10-26T14:35:13;4.20;;;1.67;;
28483;SDS011;15704;48.834;8.736;2022-10-26T14:37:42;5.00;;;1.90;;
28483;SDS011;15704;48.834;8.736;2022-10-26T14:40:18;5.00;;;1.85;;
28483;SDS011;15704;48.834;8.736;2022-10-26T14:42:46;4.30;;;1.98;;
28483;SDS011;15704;48.834;8.736;2022-10-26T14:45:23;6.25;;;1.52;;
28483;SDS011;15704;48.834;8.736;2022-10-26T14:47:52;4.15;;;1.73;;
28483;SDS011;15704;48.834;8.736;2022-10-26T14:50:19;7.00;;;1.73;;
28483;SDS011;15704;48.834;8.736;2022-10-26T14:52:51;5.05;;;2.03;;
28483;SDS011;15704;48.834;8.736;2022-10-26T14:55:19;7.80;;;2.13;;
28483;SDS011;15704;48.834;8.736;2022-10-26T14:57:45;10.77;;;2.25;;
28483;SDS011;15704;48.834;8.736;2022-10-26T15:02:40;4.82;;;1.73;;
28483;SDS011;15704;48.834;8.736;2022-10-26T15:05:16;3.67;;;1.70;;
28483;SDS011;15704;48.834;8.736;2022-10-26T15:07:48;6.28;;;2.10;;
28483;SDS011;15704;48.834;8.736;2022-10-26T15:15:49;10.25;;;2.33;;
28483;SDS011;15704;48.834;8.736;2022-10-26T15:20:47;10.90;;;2.20;;
28483;SDS011;15704;48.834;8.736;2022-10-26T15:23:13;8.75;;;2.50;;
28483;SDS011;15704;48.834;8.736;2022-10-26T15:25:40;11.68;;;2.08;;
28483;SDS011;15704;48.834;8.736;2022-10-26T15:28:29;2.72;;;1.70;;
28483;SDS011;15704;48.834;8.736;2022-10-26T15:33:31;8.80;;;2.05;;
28483;SDS011;15704;48.834;8.736;2022-10-26T15:38:32;6.72;;;1.80;;
28483;SDS011;15704;48.834;8.736;2022-10-26T15:40:58;8.52;;;2.30;;
28483;SDS011;15704;48.834;8.736;2022-10-26T15:43:24;7.55;;;2.40;;
28483;SDS011;15704;48.834;8.736;2022-10-26T15:45:49;7.13;;;1.90;;
28483;SDS011;15704;48.834;8.736;2022-10-26T15:50:50;5.05;;;2.42;;
28483;SDS011;15704;48.834;8.736;2022-10-26T15:53:20;9.50;;;2.35;;
28483;SDS011;15704;48.834;8.736;2022-10-26T15:55:48;5.25;;;2.33;;
28483;SDS011;15704;48.834;8.736;2022-10-26T15:58:16;8.43;;;2.70;;
28483;SDS011;15704;48.834;8.736;2022-10-26T16:00:42;4.90;;;2.10;;
28483;SDS011;15704;48.834;8.736;2022-10-26T16:03:11;3.42;;;1.90;;
28483;SDS011;15704;48.834;8.736;2022-10-26T16:05:39;6.68;;;2.40;;
28483;SDS011;15704;48.834;8.736;2022-10-26T16:08:07;5.40;;;1.80;;
28483;SDS011;15704;48.834;8.736;2022-10-26T16:10:36;8.05;;;2.35;;
28483;SDS011;15704;48.834;8.736;2022-10-26T16:13:02;8.80;;;2.92;;
28483;SDS011;15704;48.834;8.736;2022-10-26T16:15:27;18.95;;;12.70;;
28483;SDS011;15704;48.834;8.736;2022-10-26T16:17:53;16.40;;;8.02;;
28483;SDS011;15704;48.834;8.736;2022-10-26T16:20:22;11.52;;;5.88;;
28483;SDS011;15704;48.834;8.736;2022-10-26T16:22:49;9.82;;;4.28;;
28483;SDS011;15704;48.834;8.736;2022-10-26T16:25:17;7.20;;;3.40;;
28483;SDS011;15704;48.834;8.736;2022-10-26T16:27:47;16.17;;;3.40;;
28483;SDS011;15704;48.834;8.736;2022-10-26T16:30:16;7.43;;;2.92;;
28483;SDS011;15704;48.834;8.736;2022-10-26T16:32:42;7.88;;;2.40;;
28483;SDS011;15704;48.834;8.736;2022-10-26T16:35:08;7.57;;;2.50;;
28483;SDS011;15704;48.834;8.736;2022-10-26T16:37:35;5.10;;;2.53;;
28483;SDS011;15704;48.834;8.736;2022-10-26T16:40:01;4.97;;;2.50;;
28483;SDS011;15704;48.834;8.736;2022-10-26T16:42:26;3.60;;;1.90;;
28483;SDS011;15704;48.834;8.736;2022-10-26T16:44:54;4.68;;;2.35;;
28483;SDS011;15704;48.834;8.736;2022-10-26T16:47:19;6.55;;;2.20;;
28483;SDS011;15704;48.834;8.736;2022-10-26T16:49:45;4.93;;;2.30;;
28483;SDS011;15704;48.834;8.736;2022-10-26T16:52:11;4.70;;;2.10;;
28483;SDS011;15704;48.834;8.736;2022-10-26T16:54:37;7.53;;;2.15;;
28483;SDS011;15704;48.834;8.736;2022-10-26T16:57:02;5.45;;;2.53;;
28483;SDS011;15704;48.834;8.736;2022-10-26T16:59:29;4.45;;;1.98;;
28483;SDS011;15704;48.834;8.736;2022-10-26T17:01:54;5.10;;;2.13;;
28483;SDS011;15704;48.834;8.736;2022-10-26T17:04:20;6.60;;;2.13;;
28483;SDS011;15704;48.834;8.736;2022-10-26T17:06:45;6.40;;;2.20;;
28483;SDS011;15704;48.834;8.736;2022-10-26T17:09:11;4.00;;;2.33;;
28483;SDS011;15704;48.834;8.736;2022-10-26T17:11:37;4.93;;;2.15;;
28483;SDS011;15704;48.834;8.736;2022-10-26T17:14:02;3.83;;;2.17;;
28483;SDS011;15704;48.834;8.736;2022-10-26T17:16:28;4.20;;;2.30;;
28483;SDS011;15704;48.834;8.736;2022-10-26T17:18:53;5.88;;;2.45;;
28483;SDS011;15704;48.834;8.736;2022-10-26T17:21:25;4.30;;;1.80;;
28483;SDS011;15704;48.834;8.736;2022-10-26T17:23:55;3.53;;;1.88;;
28483;SDS011;15704;48.834;8.736;2022-10-26T17:26:21;3.65;;;2.20;;
28483;SDS011;15704;48.834;8.736;2022-10-26T17:28:51;3.67;;;1.88;;
28483;SDS011;15704;48.834;8.736;2022-10-26T17:31:17;4.22;;;2.40;;
28483;SDS011;15704;48.834;8.736;2022-10-26T17:33:43;5.93;;;2.15;;
28483;SDS011;15704;48.834;8.736;2022-10-26T17:36:12;6.28;;;2.50;;
28483;SDS011;15704;48.834;8.736;2022-10-26T17:38:38;4.75;;;2.25;;
28483;SDS011;15704;48.834;8.736;2022-10-26T17:41:09;4.20;;;2.25;;
28483;SDS011;15704;48.834;8.736;2022-10-26T17:43:40;4.03;;;1.98;;
28483;SDS011;15704;48.834;8.736;2022-10-26T17:46:08;3.85;;;2.20;;
28483;SDS011;15704;48.834;8.736;2022-10-26T17:48:35;6.18;;;2.17;;
28483;SDS011;15704;48.834;8.736;2022-10-26T17:51:01;3.63;;;2.00;;
28483;SDS011;15704;48.834;8.736;2022-10-26T17:53:29;3.38;;;2.00;;
28483;SDS011;15704;48.834;8.736;2022-10-26T17:56:01;3.08;;;1.80;;
28483;SDS011;15704;48.834;8.736;2022-10-26T17:58:29;4.35;;;2.08;;
28483;SDS011;15704;48.834;8.736;2022-10-26T18:00:54;6.57;;;2.20;;
28483;SDS011;15704;48.834;8.736;2022-10-26T18:03:24;5.30;;;1.90;;